Time;durP1;ratioP1;P1;durP2;ratioP2;P2;SDS_P1;SDS_P2;PMS_P1;PMS_P2;Temp;Humidity;BMP_temperature;BMP_pressure;BME280_temperature;BME280_humidity;BME280_pressure;Samples;Min_cycle;Max_cycle;Signal;HPM_P1;HPM_P2
2021/11/04 00:00:18;;;;;;;20.07;13.73;;;;;;;6.93;84.54;100774.94;5052979;28;20033;-60
2021/11/04 00:02:44;;;;;;;15.43;11.93;;;;;;;7.01;84.22;100780.41;5052285;28;20033;-62
2021/11/04 00:05:11;;;;;;;18.43;13.67;;;;;;;7.04;83.99;100776.66;5034551;28;20110;-61
2021/11/04 00:07:37;;;;;;;17.10;13.63;;;;;;;7.00;84.00;100777.91;5052181;28;20036;-62
2021/11/04 00:10:05;;;;;;;18.57;15.17;;;;;;;7.06;83.77;100782.63;5051707;28;20044;-59
2021/11/04 00:12:31;;;;;;;20.27;12.95;;;;;;;6.99;84.16;100771.78;5051653;28;20485;-60
2021/11/04 00:14:56;;;;;;;15.40;11.90;;;;;;;7.01;83.72;100772.47;5052920;28;20048;-60
2021/11/04 00:17:22;;;;;;;17.33;13.00;;;;;;;6.96;83.68;100772.06;5051890;28;20114;-59
2021/11/04 00:19:47;;;;;;;18.43;13.97;;;;;;;6.95;84.55;100769.53;5052061;28;20094;-61
2021/11/04 00:22:13;;;;;;;18.83;14.10;;;;;;;6.97;84.34;100776.38;5051848;28;20116;-61
2021/11/04 00:24:38;;;;;;;16.23;12.60;;;;;;;6.96;84.34;100771.22;5051698;28;20435;-60
2021/11/04 00:27:04;;;;;;;17.47;13.23;;;;;;;7.07;84.15;100774.56;5051641;28;20037;-60
2021/11/04 00:29:30;;;;;;;14.47;11.90;;;;;;;7.08;84.17;100778.88;5052616;28;20037;-60
2021/11/04 00:31:56;;;;;;;17.37;12.37;;;;;;;7.02;83.82;100760.91;5051967;28;20043;-59
2021/11/04 00:34:23;;;;;;;20.20;13.70;;;;;;;7.14;83.94;100786.25;5051797;28;20029;-61
2021/11/04 00:36:48;;;;;;;15.30;12.43;;;;;;;7.14;83.95;100774.81;5051934;28;20048;-60
2021/11/04 00:39:15;;;;;;;16.83;13.07;;;;;;;6.99;84.26;100755.88;5051701;28;20041;-59
2021/11/04 00:41:40;;;;;;;15.97;13.10;;;;;;;7.02;84.63;100760.91;5051504;28;20141;-61
2021/11/04 00:44:06;;;;;;;16.30;12.43;;;;;;;6.91;84.75;100742.47;5052302;28;20080;-60
2021/11/04 00:46:32;;;;;;;13.17;11.47;;;;;;;7.08;85.20;100765.63;5052449;28;20029;-59
2021/11/04 00:48:58;;;;;;;16.70;12.10;;;;;;;6.90;84.89;100732.88;5052709;28;20033;-59
2021/11/04 00:51:23;;;;;;;16.67;12.40;;;;;;;6.91;85.19;100733.72;5052855;28;20037;-61
2021/11/04 00:53:49;;;;;;;18.40;12.83;;;;;;;7.04;85.51;100758.94;5051752;28;20055;-60
2021/11/04 00:56:15;;;;;;;18.83;12.70;;;;;;;6.99;85.34;100753.25;5033584;28;20091;-59
2021/11/04 00:58:40;;;;;;;20.87;13.80;;;;;;;6.95;85.27;100754.50;5033830;28;20036;-60
2021/11/04 01:01:06;;;;;;;18.70;12.23;;;;;;;7.01;85.49;100756.56;5033997;28;20060;-59
2021/11/04 01:03:32;;;;;;;20.03;13.43;;;;;;;7.00;85.51;100754.06;5051697;28;20374;-60
2021/11/04 01:05:58;;;;;;;16.63;12.80;;;;;;;6.96;85.18;100750.03;5051362;28;20029;-60
2021/11/04 01:08:24;;;;;;;17.27;13.77;;;;;;;6.96;85.87;100755.34;5033554;28;20052;-60
2021/11/04 01:10:49;;;;;;;15.40;12.80;;;;;;;7.00;85.46;100757.56;5051180;28;20036;-59
2021/11/04 01:13:15;;;;;;;19.73;12.47;;;;;;;7.05;85.75;100765.06;5051296;28;20045;-60
2021/11/04 01:15:40;;;;;;;16.20;11.27;;;;;;;7.02;85.01;100755.59;5052119;28;20037;-61
2021/11/04 01:18:06;;;;;;;13.77;11.50;;;;;;;7.04;85.28;100753.66;5033801;28;20082;-59
2021/11/04 01:20:32;;;;;;;16.37;12.87;;;;;;;7.06;85.16;100751.69;5033780;28;20086;-60
2021/11/04 01:22:57;;;;;;;16.20;12.53;;;;;;;7.08;85.44;100751.56;5053552;28;20051;-61
2021/11/04 01:25:23;;;;;;;16.60;12.00;;;;;;;7.04;85.49;100743.06;5055354;28;20484;-59
2021/11/04 01:27:49;;;;;;;12.83;11.03;;;;;;;7.15;84.93;100766.72;5055284;28;20045;-59
2021/11/04 01:30:14;;;;;;;18.93;12.20;;;;;;;7.00;84.87;100730.25;5055953;28;20098;-62
2021/11/04 01:32:40;;;;;;;14.83;10.90;;;;;;;7.12;84.87;100760.88;5037234;28;20534;-60
2021/11/04 01:35:07;;;;;;;17.53;12.03;;;;;;;7.12;85.21;100764.38;5054765;28;20037;-59
2021/11/04 01:37:34;;;;;;;15.70;11.57;;;;;;;7.12;85.23;100760.88;5054943;28;20044;-60
2021/11/04 01:40:00;;;;;;;14.27;10.57;;;;;;;7.09;84.97;100761.16;5055083;28;20148;-59
2021/11/04 01:42:26;;;;;;;17.63;10.63;;;;;;;7.08;85.85;100759.50;5054586;28;20041;-60
2021/11/04 01:44:52;;;;;;;15.97;11.83;;;;;;;7.00;85.74;100746.97;5020884;28;20047;-59
2021/11/04 01:47:18;;;;;;;13.47;10.40;;;;;;;6.95;85.31;100730.66;5054490;28;20033;-61
2021/11/04 01:49:44;;;;;;;16.90;11.10;;;;;;;7.06;84.96;100757.00;5054553;28;20067;-61
2021/11/04 01:52:10;;;;;;;13.33;10.47;;;;;;;7.12;85.45;100753.78;5037109;28;20076;-59
2021/11/04 01:54:36;;;;;;;16.93;11.63;;;;;;;7.11;85.25;100738.88;5036585;28;20495;-60
2021/11/04 01:57:02;;;;;;;13.13;10.27;;;;;;;7.17;85.30;100763.09;5054501;28;20040;-61
2021/11/04 01:59:28;;;;;;;14.80;10.90;;;;;;;7.07;85.29;100748.06;5055112;28;20032;-59
2021/11/04 02:02:05;;;;;;;15.03;10.77;;;;;;;7.13;85.24;100751.97;5054325;28;20083;-59
2021/11/04 02:04:44;;;;;;;16.20;11.07;;;;;;;7.11;85.62;100754.75;5020217;28;20032;-59
2021/11/04 02:07:19;;;;;;;13.67;10.87;;;;;;;7.14;85.34;100758.94;5036346;28;20029;-60
2021/11/04 02:10:01;;;;;;;14.20;10.17;;;;;;;7.15;85.34;100758.78;5054277;28;20063;-59
2021/11/04 02:12:33;;;;;;;14.27;11.17;;;;;;;7.11;85.62;100749.44;5054253;28;20044;-60
2021/11/04 02:15:00;;;;;;;13.73;10.67;;;;;;;7.10;85.14;100742.50;5054674;28;20040;-58
2021/11/04 02:17:28;;;;;;;14.50;10.03;;;;;;;7.20;85.10;100757.53;5053730;28;20447;-59
2021/11/04 02:19:59;;;;;;;11.05;9.38;;;;;;;7.20;85.24;100760.19;5053999;28;20033;-60
2021/11/04 02:22:28;;;;;;;15.90;10.93;;;;;;;7.19;85.09;100759.34;5036288;28;20048;-60
2021/11/04 02:25:06;;;;;;;13.68;9.48;;;;;;;7.17;85.37;100758.66;5053858;28;20041;-60
2021/11/04 02:27:31;;;;;;;11.57;9.00;;;;;;;7.07;85.15;100748.06;5053895;28;20431;-61
2021/11/04 02:29:58;;;;;;;12.87;9.33;;;;;;;7.13;85.78;100752.78;5054370;28;20041;-59
2021/11/04 02:32:23;;;;;;;12.73;9.30;;;;;;;7.21;85.23;100760.03;5035374;28;20033;-61
2021/11/04 02:34:50;;;;;;;10.77;8.87;;;;;;;7.24;84.95;100769.53;5053580;28;20172;-58
2021/11/04 02:37:17;;;;;;;13.47;8.53;;;;;;;7.20;84.95;100754.88;5053579;28;20040;-61
2021/11/04 02:39:46;;;;;;;12.30;8.57;;;;;;;7.15;85.27;100756.13;5035539;28;20056;-59
2021/11/04 02:42:13;;;;;;;15.70;9.02;;;;;;;7.22;84.85;100763.50;5053586;28;20044;-60
2021/11/04 02:44:40;;;;;;;10.00;8.50;;;;;;;7.18;84.75;100748.88;5053883;28;20045;-61
2021/11/04 02:47:07;;;;;;;11.07;8.30;;;;;;;7.22;84.74;100750.28;5053553;28;20044;-60
2021/11/04 02:49:36;;;;;;;15.43;9.40;;;;;;;6.92;85.41;100708.91;5053424;28;20037;-61
2021/11/04 02:52:03;;;;;;;11.63;8.37;;;;;;;7.23;85.01;100751.94;5053367;28;20074;-59
2021/11/04 02:54:29;;;;;;;9.53;7.83;;;;;;;7.27;84.82;100748.91;5053337;28;20040;-60
2021/11/04 02:56:58;;;;;;;12.53;8.40;;;;;;;7.34;84.89;100767.72;5053593;28;20484;-61
2021/11/04 02:59:24;;;;;;;;;;;;;;;7.39;84.85;100762.81;5055173;28;20033;-59
2021/11/04 03:01:54;;;;;;;8.90;7.47;;;;;;;7.31;84.95;100755.56;5056343;28;19916;-59
2021/11/04 03:04:20;;;;;;;8.93;7.10;;;;;;;7.24;84.22;100743.88;5053805;28;20036;-61
2021/11/04 03:06:46;;;;;;;9.50;8.03;;;;;;;7.30;84.58;100759.22;5054310;28;20044;-59
2021/11/04 03:09:12;;;;;;;11.20;7.87;;;;;;;7.30;85.03;100755.72;5053844;28;20048;-60
2021/11/04 03:11:38;;;;;;;9.20;7.33;;;;;;;7.29;84.63;100760.19;5053024;28;20412;-59
2021/11/04 03:14:04;;;;;;;10.37;7.97;;;;;;;7.28;84.91;100762.97;5053175;28;20032;-58
2021/11/04 03:16:39;;;;;;;11.03;7.97;;;;;;;7.28;85.31;100750.56;5054231;28;20431;-60
2021/11/04 03:19:07;;;;;;;9.37;7.83;;;;;;;7.11;84.68;100722.97;5053097;28;20131;-60
2021/11/04 03:21:35;;;;;;;13.07;8.63;;;;;;;7.30;85.05;100748.63;5053929;28;20028;-61
2021/11/04 03:24:02;;;;;;;9.93;8.10;;;;;;;7.32;85.10;100746.66;5053690;28;20066;-60
2021/11/04 03:26:31;;;;;;;16.43;9.03;;;;;;;7.25;84.94;100742.91;5053954;28;20033;-60
2021/11/04 03:28:58;;;;;;;12.98;8.85;;;;;;;7.32;85.44;100761.72;5052936;28;20058;-58
2021/11/04 03:31:25;;;;;;;11.17;9.27;;;;;;;7.33;84.96;100758.09;5053284;28;20041;-61
2021/11/04 03:33:51;;;;;;;11.00;8.63;;;;;;;7.25;85.43;100742.06;5037435;28;20032;-62
2021/11/04 03:36:22;;;;;;;10.17;8.37;;;;;;;7.29;85.50;100757.53;5053606;28;20036;-61
2021/11/04 03:38:49;;;;;;;13.03;8.87;;;;;;;7.26;85.16;100751.69;5035387;28;20037;-62
2021/11/04 03:41:18;;;;;;;13.27;8.97;;;;;;;7.29;85.14;100754.06;5052798;28;20520;-59
2021/11/04 03:43:45;;;;;;;12.33;8.37;;;;;;;7.28;85.32;100753.22;5051391;28;20051;-59
2021/11/04 03:46:12;;;;;;;14.70;8.87;;;;;;;7.30;85.13;100758.38;5034897;28;20028;-60
2021/11/04 03:48:40;;;;;;;11.17;7.80;;;;;;;7.35;85.19;100761.44;5052008;28;20484;-60
2021/11/04 03:51:07;;;;;;;9.10;7.85;;;;;;;7.33;85.39;100750.13;5052164;28;20076;-61
2021/11/04 03:53:35;;;;;;;11.87;9.03;;;;;;;7.34;85.25;100757.09;5052118;28;20037;-60
2021/11/04 03:56:01;;;;;;;10.90;8.65;;;;;;;6.81;85.49;100672.84;5051977;28;20056;-59
2021/11/04 03:58:27;;;;;;;10.90;9.13;;;;;;;7.39;85.44;100765.47;5051965;28;20045;-59
2021/11/04 04:00:55;;;;;;;10.77;7.87;;;;;;;7.42;85.49;100768.66;5052569;28;20072;-58
2021/11/04 04:03:20;;;;;;;9.73;8.07;;;;;;;7.35;84.95;100746.38;5052405;28;20530;-60
2021/11/04 04:05:58;;;;;;;11.30;9.20;;;;;;;7.16;84.67;100719.91;5051874;28;20064;-60
2021/11/04 04:08:23;;;;;;;11.30;8.90;;;;;;;7.32;85.33;100745.81;5052344;28;20033;-58
2021/11/04 04:10:49;;;;;;;12.20;8.97;;;;;;;7.39;84.91;100763.66;5052109;28;20036;-59
2021/11/04 04:13:14;;;;;;;12.57;9.10;;;;;;;7.43;85.37;100753.59;5052067;28;20063;-59
2021/11/04 04:15:40;;;;;;;14.00;8.47;;;;;;;7.47;85.14;100749.69;5035010;28;20120;-60
2021/11/04 04:18:05;;;;;;;9.17;8.13;;;;;;;7.50;84.95;100748.56;5051760;28;20083;-60
2021/11/04 04:20:31;;;;;;;11.57;8.37;;;;;;;7.55;84.70;100757.78;5051839;28;20037;-60
2021/11/04 04:22:56;;;;;;;12.87;8.27;;;;;;;7.57;85.21;100755.81;5052006;28;20033;-59
2021/11/04 04:25:22;;;;;;;13.80;9.10;;;;;;;7.49;84.23;100737.13;5051848;28;20041;-60
2021/11/04 04:27:48;;;;;;;11.63;9.20;;;;;;;7.49;84.76;100749.53;5051887;28;20041;-60
2021/11/04 04:30:13;;;;;;;10.43;8.70;;;;;;;7.46;84.80;100746.19;5051868;28;20075;-59
2021/11/04 04:32:39;;;;;;;13.03;10.03;;;;;;;7.46;85.10;100753.31;5051866;28;20041;-60
2021/11/04 04:35:05;;;;;;;10.20;9.07;;;;;;;7.34;84.66;100735.91;5051534;28;20156;-61
2021/11/04 04:37:31;;;;;;;12.57;9.93;;;;;;;7.43;85.06;100750.94;5051757;28;20544;-59
2021/11/04 04:39:57;;;;;;;13.77;10.10;;;;;;;7.39;85.69;100747.75;5051844;28;20053;-60
2021/11/04 04:42:22;;;;;;;13.93;9.60;;;;;;;7.38;84.89;100740.78;5051624;28;20450;-58
2021/11/04 04:44:48;;;;;;;13.13;9.63;;;;;;;7.47;85.02;100744.38;5052157;28;20048;-60
2021/11/04 04:47:13;;;;;;;18.33;10.27;;;;;;;7.47;85.58;100739.91;5051915;28;20037;-59
2021/11/04 04:49:39;;;;;;;12.10;9.20;;;;;;;7.57;85.04;100757.63;5051318;28;20033;-60
2021/11/04 04:52:04;;;;;;;14.33;10.23;;;;;;;7.49;84.94;100742.41;5051716;28;20037;-59
2021/11/04 04:54:30;;;;;;;12.80;10.10;;;;;;;7.46;85.09;100743.53;5051657;28;20416;-60
2021/11/04 04:56:55;;;;;;;12.93;10.20;;;;;;;7.43;85.32;100749.13;5036001;28;20127;-62
2021/11/04 04:59:21;;;;;;;13.07;10.07;;;;;;;7.36;84.89;100739.25;5055602;28;20063;-61
2021/11/04 05:01:47;;;;;;;11.37;8.90;;;;;;;7.46;85.30;100753.31;5055586;28;20033;-61
2021/11/04 05:04:12;;;;;;;12.30;9.50;;;;;;;7.42;85.03;100743.97;5055230;28;20178;-59
2021/11/04 05:06:38;;;;;;;11.07;8.47;;;;;;;7.42;85.13;100741.31;5055396;28;20535;-60
2021/11/04 05:09:03;;;;;;;12.73;10.13;;;;;;;7.42;85.09;100746.63;5055322;28;20033;-60
2021/11/04 05:11:29;;;;;;;10.60;9.17;;;;;;;7.42;84.98;100746.63;5055299;28;20029;-61
2021/11/04 05:13:54;;;;;;;10.67;8.53;;;;;;;7.34;85.09;100738.56;5055342;28;20399;-60
2021/11/04 05:16:20;;;;;;;10.27;8.80;;;;;;;7.31;85.03;100754.75;5038679;28;20119;-59
2021/11/04 05:18:45;;;;;;;10.13;8.70;;;;;;;7.23;84.73;100758.09;5055035;28;20132;-60
2021/11/04 05:21:11;;;;;;;11.70;9.40;;;;;;;7.15;85.35;100753.50;5054826;28;20155;-60
2021/11/04 05:23:36;;;;;;;9.47;8.50;;;;;;;7.08;86.08;100760.34;5055067;28;20036;-59
2021/11/04 05:26:02;;;;;;;9.83;8.53;;;;;;;7.01;85.44;100747.81;5055059;28;20040;-59
2021/11/04 05:28:28;;;;;;;10.33;8.87;;;;;;;6.94;86.01;100752.81;5054962;28;20033;-60
2021/11/04 05:30:53;;;;;;;12.03;9.30;;;;;;;6.72;86.16;100722.16;5055658;28;20098;-60
2021/11/04 05:33:19;;;;;;;11.67;8.93;;;;;;;6.85;85.80;100753.63;5054887;28;20447;-59
2021/11/04 05:35:44;;;;;;;9.20;8.30;;;;;;;6.80;86.18;100745.28;5054577;28;20059;-60
2021/11/04 05:38:10;;;;;;;12.30;8.27;;;;;;;6.53;86.28;100716.84;5054902;28;20593;-60
2021/11/04 05:40:36;;;;;;;11.83;9.03;;;;;;;6.73;86.81;100754.75;5036788;28;20106;-59
2021/11/04 05:43:03;;;;;;;12.33;8.87;;;;;;;6.68;86.83;100754.34;5054671;28;20037;-61
2021/11/04 05:45:29;;;;;;;15.13;9.70;;;;;;;6.61;86.60;100755.84;5037379;28;20446;-60
2021/11/04 05:47:54;;;;;;;12.23;9.70;;;;;;;6.56;86.93;100758.06;5054860;28;20075;-61
2021/11/04 05:50:21;;;;;;;11.70;9.30;;;;;;;6.65;87.02;100765.16;5055348;28;20044;-60
2021/11/04 05:52:47;;;;;;;13.33;10.00;;;;;;;6.71;86.97;100762.00;5058470;28;20348;-60
2021/11/04 05:55:12;;;;;;;9.80;8.47;;;;;;;6.64;86.47;100744.97;5040918;28;20037;-59
2021/11/04 05:57:38;;;;;;;12.03;9.23;;;;;;;6.86;86.66;100775.66;5059330;28;20480;-60
2021/11/04 06:00:04;;;;;;;11.13;8.77;;;;;;;6.64;85.92;100723.81;5057099;28;20048;-59
2021/11/04 06:02:30;;;;;;;11.03;9.17;;;;;;;7.02;85.55;100778.59;5056480;28;20033;-61
2021/11/04 06:04:56;;;;;;;15.00;8.77;;;;;;;7.05;85.90;100765.06;5056791;28;20094;-61
2021/11/04 06:07:22;;;;;;;13.67;9.30;;;;;;;7.18;85.04;100775.38;5054945;28;20033;-60
2021/11/04 06:09:47;;;;;;;9.70;7.67;;;;;;;7.29;84.99;100778.72;5055719;28;20041;-60
2021/11/04 06:12:13;;;;;;;10.00;8.17;;;;;;;7.24;84.46;100775.66;5055604;28;20040;-58
2021/11/04 06:14:39;;;;;;;9.03;7.27;;;;;;;7.27;84.27;100770.09;5055193;28;20492;-62
2021/11/04 06:17:04;;;;;;;9.80;7.73;;;;;;;7.28;84.15;100760.31;5056308;28;20361;-63
2021/11/04 06:19:30;;;;;;;13.67;8.20;;;;;;;7.42;84.01;100779.25;5054704;28;20037;-59
2021/11/04 06:21:56;;;;;;;8.50;7.37;;;;;;;7.36;83.85;100774.53;5055756;28;20457;-61
2021/11/04 06:24:21;;;;;;;7.80;6.27;;;;;;;7.25;83.58;100755.31;5053214;28;20110;-61
2021/11/04 06:26:47;;;;;;;7.33;6.53;;;;;;;7.32;83.24;100767.00;5053788;28;20424;-60
2021/11/04 06:29:12;;;;;;;8.77;6.87;;;;;;;7.40;83.20;100780.38;5054151;28;20509;-60
2021/11/04 06:31:39;;;;;;;8.37;6.63;;;;;;;7.43;82.68;100790.69;5036982;28;20447;-60
2021/11/04 06:34:05;;;;;;;15.23;8.50;;;;;;;7.34;83.38;100779.13;5036674;28;20048;-60
2021/11/04 06:36:31;;;;;;;9.67;7.10;;;;;;;7.39;82.58;100781.34;5036167;28;20040;-59
2021/11/04 06:38:56;;;;;;;7.33;6.63;;;;;;;7.46;82.94;100785.94;5053370;28;20037;-60
2021/11/04 06:41:23;;;;;;;8.67;7.73;;;;;;;7.49;82.24;100786.63;5053111;28;20424;-60
2021/11/04 06:43:48;;;;;;;9.17;7.63;;;;;;;7.55;82.45;100791.38;5053534;28;20045;-61
2021/11/04 06:46:14;;;;;;;9.63;6.03;;;;;;;7.56;82.39;100785.94;5054728;28;20041;-59
2021/11/04 06:48:43;;;;;;;9.20;7.33;;;;;;;7.50;82.21;100781.19;5053858;28;20025;-61
2021/11/04 06:51:11;;;;;;;10.65;6.97;;;;;;;7.58;81.88;100799.06;5053513;28;20029;-61
2021/11/04 06:53:43;;;;;;;10.70;9.00;;;;;;;7.56;81.92;100796.53;5053227;28;20041;-62
2021/11/04 06:56:09;;;;;;;10.50;8.23;;;;;;;7.51;81.97;100788.16;5053406;28;20033;-61
2021/11/04 06:58:36;;;;;;;7.00;6.30;;;;;;;7.59;82.04;100798.91;5053002;28;20519;-59
2021/11/04 07:01:08;;;;;;;7.37;6.23;;;;;;;7.62;81.91;100790.66;5036181;28;20032;-62
2021/11/04 07:03:41;;;;;;;7.17;6.27;;;;;;;7.53;81.44;100765.03;5053310;28;20060;-59
2021/11/04 07:06:08;;;;;;;8.97;5.80;;;;;;;7.56;81.69;100785.94;5035152;28;20044;-60
2021/11/04 07:08:58;;;;;;;8.50;7.07;;;;;;;7.65;81.63;100789.53;5035422;28;20045;-62
2021/11/04 07:11:27;;;;;;;9.97;8.10;;;;;;;7.59;82.71;100775.06;5034981;28;20496;-61
2021/11/04 07:13:54;;;;;;;7.60;6.80;;;;;;;7.68;81.74;100792.75;5052825;28;20480;-61
2021/11/04 07:16:22;;;;;;;8.80;7.10;;;;;;;7.68;82.21;100787.44;5053578;28;20044;-61
2021/11/04 07:18:49;;;;;;;7.10;6.40;;;;;;;7.59;81.75;100775.06;5052705;28;20491;-62
2021/11/04 07:21:22;;;;;;;10.13;6.47;;;;;;;7.59;82.55;100787.47;5053903;28;20037;-58
2021/11/04 07:24:07;;;;;;;8.40;6.97;;;;;;;7.66;82.64;100796.53;5037811;28;20029;-60
2021/11/04 07:26:44;;;;;;;7.87;6.10;;;;;;;7.62;82.77;100793.31;5054489;28;20495;-60
2021/11/04 07:29:11;;;;;;;7.77;6.97;;;;;;;7.56;82.94;100783.28;5052703;28;20402;-62
2021/11/04 07:31:41;;;;;;;9.67;6.60;;;;;;;7.67;82.74;100804.31;5052844;28;20408;-60
2021/11/04 07:34:10;;;;;;;9.17;7.67;;;;;;;7.67;82.13;100793.72;5052410;28;20033;-60
2021/11/04 07:36:38;;;;;;;7.78;5.88;;;;;;;7.69;82.53;100796.22;5052010;28;20242;-60
2021/11/04 07:39:06;;;;;;;7.55;5.88;;;;;;;7.69;82.55;100799.72;5052310;28;20134;-61
2021/11/04 07:41:33;;;;;;;8.55;5.68;;;;;;;7.58;82.48;100783.16;5052891;28;20063;-61
2021/11/04 07:44:00;;;;;;;10.97;7.93;;;;;;;7.66;82.82;100807.13;5036657;28;20049;-60
2021/11/04 07:46:28;;;;;;;14.37;9.43;;;;;;;7.71;83.13;100804.88;5054347;28;20087;-62
2021/11/04 07:48:54;;;;;;;13.13;10.97;;;;;;;7.66;82.53;100805.31;5055468;28;20037;-61
2021/11/04 07:51:19;;;;;;;8.73;6.40;;;;;;;7.67;83.12;100814.09;5055096;28;20039;-61
2021/11/04 07:53:45;;;;;;;8.43;6.10;;;;;;;7.69;83.49;100810.31;5053802;28;20033;-58
2021/11/04 07:56:11;;;;;;;7.70;6.27;;;;;;;7.71;83.44;100820.78;5052424;28;20400;-61
2021/11/04 07:58:37;;;;;;;6.20;5.60;;;;;;;7.67;83.51;100812.28;5052173;28;20123;-60
2021/11/04 08:01:03;;;;;;;9.03;6.60;;;;;;;7.64;83.85;100814.38;5052380;28;20064;-60
2021/11/04 08:03:29;;;;;;;10.20;6.00;;;;;;;7.60;83.95;100819.13;5052348;28;20518;-60
2021/11/04 08:05:54;;;;;;;9.27;6.63;;;;;;;7.61;83.98;100823.44;5034413;28;20085;-60
2021/11/04 08:08:20;;;;;;;8.23;6.90;;;;;;;7.61;83.98;100825.28;5055485;28;20044;-60
2021/11/04 08:10:45;;;;;;;11.50;6.00;;;;;;;7.50;84.33;100796.25;5057015;28;20045;-59
2021/11/04 08:13:13;;;;;;;8.13;6.53;;;;;;;7.61;84.49;100820.81;5056102;28;20028;-63
2021/11/04 08:15:40;;;;;;;8.60;6.78;;;;;;;7.63;84.26;100820.66;5054942;28;20484;-59
2021/11/04 08:18:10;;;;;;;8.73;6.40;;;;;;;7.55;84.02;100810.78;5051457;28;20037;-60
2021/11/04 08:20:37;;;;;;;8.20;6.30;;;;;;;7.51;84.26;100798.75;5034124;28;20025;-61
2021/11/04 08:23:08;;;;;;;8.17;6.27;;;;;;;7.31;84.60;100775.94;5051779;28;20040;-60
2021/11/04 08:25:34;;;;;;;8.13;6.17;;;;;;;7.54;84.40;100818.88;5051250;28;20365;-61
2021/11/04 08:27:59;;;;;;;8.80;5.93;;;;;;;7.55;84.64;100812.59;5051157;28;20033;-62
2021/11/04 08:30:25;;;;;;;7.23;5.23;;;;;;;7.61;84.87;100825.28;5050897;28;20049;-60
2021/11/04 08:32:51;;;;;;;7.70;6.37;;;;;;;7.60;85.08;100821.78;5052039;28;20062;-61
2021/11/04 08:35:16;;;;;;;9.47;6.63;;;;;;;7.56;84.98;100816.91;5051761;28;20029;-59
2021/11/04 08:37:44;;;;;;;10.80;7.10;;;;;;;7.55;85.02;100805.47;5051652;28;20040;-60
2021/11/04 08:40:11;;;;;;;7.37;6.37;;;;;;;7.59;84.35;100817.47;5051543;28;20057;-59
2021/11/04 08:42:37;;;;;;;7.07;6.37;;;;;;;7.60;84.63;100818.28;5051867;28;20048;-61
2021/11/04 08:45:05;;;;;;;7.13;6.23;;;;;;;7.40;85.14;100781.22;5051365;28;20083;-61
2021/11/04 08:47:30;;;;;;;13.40;7.53;;;;;;;7.39;85.49;100790.13;5034769;28;20068;-62
2021/11/04 08:49:57;;;;;;;8.17;6.87;;;;;;;7.67;85.08;100830.84;5050567;28;20068;-62
2021/11/04 08:52:23;;;;;;;8.87;7.40;;;;;;;7.65;85.07;100824.00;5051862;28;20500;-61
2021/11/04 08:54:49;;;;;;;9.03;7.10;;;;;;;7.73;85.31;100840.88;5051669;28;20037;-63
2021/11/04 08:57:15;;;;;;;7.27;5.67;;;;;;;7.69;84.95;100834.19;5051559;28;20036;-61
2021/11/04 08:59:42;;;;;;;6.87;5.40;;;;;;;7.66;84.70;100839.75;5051343;28;20041;-61
2021/11/04 09:02:12;;;;;;;12.00;7.30;;;;;;;7.69;85.63;100850.09;5053027;28;20044;-59
2021/11/04 09:04:41;;;;;;;8.43;7.00;;;;;;;7.68;85.21;100842.28;5033892;28;20044;-59
2021/11/04 09:07:12;;;;;;;7.87;6.53;;;;;;;7.63;86.44;100845.34;5033667;28;20033;-60
2021/11/04 09:09:37;;;;;;;9.50;7.00;;;;;;;7.66;86.21;100845.06;5051416;28;20401;-61
2021/11/04 09:12:03;;;;;;;14.13;12.63;;;;;;;7.66;86.17;100846.88;5051379;28;20194;-59
2021/11/04 09:14:29;;;;;;;9.93;6.97;;;;;;;7.60;85.51;100829.72;5051039;28;20361;-61
2021/11/04 09:16:54;;;;;;;9.07;7.53;;;;;;;7.59;85.63;100828.06;5052657;28;20039;-60
2021/11/04 09:19:20;;;;;;;10.17;7.00;;;;;;;7.65;85.79;100838.09;5033517;28;20039;-62
2021/11/04 09:21:46;;;;;;;9.37;6.10;;;;;;;7.64;85.48;100836.41;5051159;28;20033;-63
2021/11/04 09:24:12;;;;;;;11.93;7.30;;;;;;;7.65;86.49;100842.56;5050058;28;20497;-63
2021/11/04 09:26:38;;;;;;;8.93;6.60;;;;;;;7.60;85.64;100845.63;5032779;28;20041;-63
2021/11/04 09:29:05;;;;;;;8.33;6.63;;;;;;;7.47;85.86;100818.56;5051050;28;20037;-63
2021/11/04 09:31:32;;;;;;;10.73;6.50;;;;;;;7.64;86.54;100844.38;5052364;28;20086;-63
2021/11/04 09:33:58;;;;;;;7.97;5.93;;;;;;;7.69;86.18;100849.25;5051450;28;20061;-63
2021/11/04 09:40:06;;;;;;;7.27;6.17;;;;;;;7.74;85.95;100870.84;5011468;28;20054;-65
2021/11/04 09:42:33;;;;;;;7.00;6.30;;;;;;;7.73;86.51;100870.03;5012143;28;20069;-67
2021/11/04 09:44:59;;;;;;;9.10;5.30;;;;;;;7.68;85.86;100866.97;5015439;28;20030;-64
2021/11/04 09:47:27;;;;;;;9.23;6.60;;;;;;;7.74;86.24;100882.28;5016690;28;20033;-65
2021/11/04 09:49:53;;;;;;;7.80;5.67;;;;;;;7.75;86.40;100891.94;5016412;28;20079;-65
2021/11/04 09:52:38;;;;;;;10.13;4.50;;;;;;;7.74;86.10;100890.25;5016054;28;20067;-67
2021/11/04 09:55:28;;;;;;;7.50;4.33;;;;;;;7.74;86.31;100892.06;5016039;28;20026;-65
2021/11/04 09:57:56;;;;;;;5.90;4.50;;;;;;;7.76;86.14;100898.91;5014654;28;20030;-66
2021/11/04 10:00:30;;;;;;;9.45;3.80;;;;;;;7.82;85.88;100897.53;5015315;28;20030;-66
2021/11/04 10:03:06;;;;;;;4.57;4.17;;;;;;;7.76;85.97;100898.91;5017015;28;20105;-63
2021/11/04 10:05:39;;;;;;;4.67;3.77;;;;;;;7.73;86.20;100904.50;5016126;28;20084;-65
2021/11/04 10:08:05;;;;;;;8.13;4.20;;;;;;;7.75;85.72;100905.19;5014309;28;20041;-69
2021/11/04 10:10:31;;;;;;;8.30;6.20;;;;;;;7.80;85.97;100917.19;5015190;28;20393;-66
2021/11/04 10:13:01;;;;;;;7.90;3.73;;;;;;;7.71;86.49;100918.88;5014768;28;20065;-65
2021/11/04 10:15:28;;;;;;;4.77;3.77;;;;;;;7.66;86.46;100915.81;5015019;28;20091;-65
2021/11/04 10:18:13;;;;;;;4.83;3.63;;;;;;;7.67;86.28;100926.25;5015577;28;20041;-66
2021/11/04 10:20:39;;;;;;;5.23;3.80;;;;;;;7.57;87.03;100925.44;5015383;28;20040;-64
2021/11/04 10:23:09;;;;;;;5.90;4.00;;;;;;;7.62;87.38;100936.44;5014722;28;20038;-65
2021/11/04 10:25:35;;;;;;;11.67;4.20;;;;;;;7.68;86.98;100938.53;5015937;28;20034;-66
2021/11/04 10:28:19;;;;;;;4.67;4.07;;;;;;;7.71;86.56;100958.63;5014916;28;20038;-67
2021/11/04 10:30:45;;;;;;;7.40;4.27;;;;;;;7.60;87.14;100945.53;5014953;28;20451;-65
2021/11/04 10:33:38;;;;;;;8.07;3.80;;;;;;;7.64;86.85;100958.34;5018594;28;20033;-66
2021/11/04 10:36:05;;;;;;;9.50;4.50;;;;;;;7.63;87.33;100967.28;5010466;28;20092;-67
2021/11/04 10:38:34;;;;;;;4.33;3.90;;;;;;;7.59;87.27;100960.59;5013722;28;20058;-66
2021/11/04 10:41:00;;;;;;;;;;;;;;;7.69;86.46;100984.44;5015520;28;20050;-68
2021/11/04 10:43:26;;;;;;;3.87;3.10;;;;;;;7.53;86.83;100963.78;5014853;28;19940;-67
2021/11/04 10:46:10;;;;;;;5.70;4.20;;;;;;;7.64;86.92;100995.47;5014094;28;20053;-68
2021/11/04 10:48:38;;;;;;;9.50;8.43;;;;;;;7.60;87.45;100986.13;5015666;28;20029;-66
2021/11/04 10:51:04;;;;;;;5.10;4.30;;;;;;;7.62;87.16;100997.41;5014029;28;20033;-69
2021/11/04 10:53:30;;;;;;;5.67;3.67;;;;;;;7.66;87.12;101006.75;5016246;28;20519;-68
2021/11/04 10:56:15;;;;;;;6.00;4.20;;;;;;;7.33;87.10;100962.09;5015696;28;20041;-67
2021/11/04 10:58:41;;;;;;;7.30;3.90;;;;;;;7.56;87.27;101010.38;5014881;28;20107;-65
2021/11/04 11:01:07;;;;;;;4.63;3.83;;;;;;;7.61;87.62;101016.09;5014923;28;20068;-66
2021/11/04 11:03:33;;;;;;;8.93;4.30;;;;;;;7.61;87.29;101016.09;5016129;28;20038;-67
2021/11/04 11:06:09;;;;;;;8.13;4.60;;;;;;;7.42;87.80;100991.25;5013763;28;20151;-65
2021/11/04 11:08:34;;;;;;;5.60;4.57;;;;;;;7.42;87.54;101008.94;5014694;28;20049;-68
2021/11/04 11:11:00;;;;;;;8.13;4.67;;;;;;;7.52;87.74;101033.69;5030189;28;20034;-66
2021/11/04 11:13:25;;;;;;;8.53;5.50;;;;;;;7.44;87.38;101028.19;5029192;28;20037;-67
2021/11/04 11:15:55;;;;;;;9.53;5.10;;;;;;;7.47;88.01;101035.88;5015151;28;20124;-66
2021/11/04 11:18:23;;;;;;;7.33;5.53;;;;;;;7.29;87.69;101016.31;5017227;28;20073;-66
2021/11/04 11:20:49;;;;;;;7.00;5.40;;;;;;;7.46;87.54;101040.34;5014378;28;20520;-65
2021/11/04 11:23:21;;;;;;;7.23;5.73;;;;;;;7.50;87.22;101050.66;5014702;28;20050;-66
2021/11/04 11:25:57;;;;;;;8.17;6.50;;;;;;;7.36;87.67;101038.66;4998643;28;20042;-68
2021/11/04 11:28:30;;;;;;;9.17;6.30;;;;;;;7.54;87.73;101065.34;5016612;28;20025;-69
2021/11/04 11:31:11;;;;;;;8.03;5.83;;;;;;;7.53;87.35;101072.47;5018659;28;20108;-66